createdAt,value
2018-05-11T00:03:45.060Z,25.93
2018-05-11T00:08:36.090Z,26.07
2018-05-11T00:13:27.104Z,24.50
2018-05-11T00:18:18.861Z,25.50
2018-05-11T00:23:09.888Z,25.23
2018-05-11T00:28:00.909Z,22.83
2018-05-11T00:32:51.927Z,23.93
2018-05-11T00:37:42.933Z,22.87
2018-05-11T00:42:34.776Z,20.00
2018-05-11T00:47:26.527Z,17.70
2018-05-11T00:52:17.543Z,17.77
2018-05-11T00:57:08.580Z,17.37
2018-05-11T01:01:59.639Z,17.17
2018-05-11T01:06:50.668Z,17.40
2018-05-11T01:11:41.687Z,16.23
2018-05-11T01:16:32.701Z,16.40
2018-05-11T01:21:23.727Z,16.90
2018-05-11T01:26:14.740Z,16.97
2018-05-11T01:31:05.768Z,15.13
2018-05-11T01:35:56.805Z,17.60
2018-05-11T01:40:47.843Z,17.40
2018-05-11T01:45:38.919Z,16.93
2018-05-11T01:50:29.955Z,17.63
2018-05-11T01:55:20.971Z,16.73
2018-05-11T02:00:11.957Z,16.83
2018-05-11T02:05:03.704Z,15.87
2018-05-11T02:09:54.747Z,18.37
2018-05-11T02:14:52.651Z,18.57
2018-05-11T02:19:43.728Z,17.20
2018-05-11T02:24:35.492Z,18.23
2018-05-11T02:29:26.539Z,18.47
2018-05-11T02:34:17.576Z,18.20
2018-05-11T02:39:08.610Z,20.03
2018-05-11T02:43:59.680Z,18.03
2018-05-11T02:48:50.711Z,18.77
2018-05-11T02:53:41.723Z,20.10
2018-05-11T02:58:32.758Z,20.27
2018-05-11T03:03:23.758Z,20.80
2018-05-11T03:08:15.552Z,20.47
2018-05-11T03:13:06.563Z,18.47
2018-05-11T03:17:57.587Z,20.80
2018-05-11T03:22:48.601Z,19.67
2018-05-11T03:27:39.625Z,19.80
2018-05-11T03:32:30.669Z,20.43
2018-05-11T03:37:21.700Z,19.43
2018-05-11T03:42:12.740Z,18.67
2018-05-11T03:47:03.781Z,18.23
2018-05-11T03:51:55.564Z,18.23
2018-05-11T03:56:46.609Z,16.63
2018-05-11T04:01:56.383Z,17.43
2018-05-11T04:07:06.265Z,17.60
2018-05-11T04:11:58.066Z,16.80
2018-05-11T04:16:49.075Z,16.83
2018-05-11T04:21:40.103Z,17.73
2018-05-11T04:26:31.152Z,17.87
2018-05-11T04:31:22.165Z,17.03
2018-05-11T04:36:13.182Z,17.27
2018-05-11T04:41:04.219Z,17.57
2018-05-11T04:45:55.241Z,17.97
2018-05-11T04:50:46.256Z,16.87
2018-05-11T04:55:37.283Z,17.00
2018-05-11T05:00:28.312Z,17.97
2018-05-11T05:05:19.396Z,18.10
2018-05-11T05:10:10.429Z,19.23
2018-05-11T05:15:01.461Z,17.70
2018-05-11T05:19:52.468Z,17.80
2018-05-11T05:24:43.474Z,17.00
2018-05-11T05:29:34.548Z,16.37
2018-05-11T05:34:25.605Z,16.67
2018-05-11T05:39:17.482Z,15.60
2018-05-11T05:44:09.219Z,15.93
2018-05-11T05:49:00.278Z,15.33
2018-05-11T05:53:51.307Z,15.70
2018-05-11T05:58:42.318Z,15.03
2018-05-11T06:03:34.123Z,15.70
2018-05-11T06:08:25.196Z,16.40
2018-05-11T06:13:16.216Z,15.17
2018-05-11T06:18:07.228Z,15.93
2018-05-11T06:22:58.227Z,16.30
2018-05-11T06:27:49.251Z,15.97
2018-05-11T06:32:40.289Z,15.77
2018-05-11T06:37:31.338Z,16.53
2018-05-11T06:42:22.451Z,17.63
2018-05-11T06:47:13.468Z,16.73
2018-05-11T06:52:05.348Z,15.67
2018-05-11T06:56:57.103Z,17.03
2018-05-11T07:01:48.147Z,17.10
2018-05-11T07:06:39.196Z,16.43
2018-05-11T07:11:30.241Z,17.07
2018-05-11T07:16:21.249Z,17.47
2018-05-11T07:21:13.767Z,16.80
2018-05-11T07:26:05.553Z,16.03
2018-05-11T07:30:56.601Z,16.73
2018-05-11T07:35:48.397Z,16.40
2018-05-11T07:40:39.544Z,16.67
2018-05-11T07:45:30.553Z,14.97
2018-05-11T07:50:21.578Z,17.47
2018-05-11T07:55:12.607Z,16.40
2018-05-11T08:00:03.706Z,16.50
2018-05-11T08:04:54.747Z,17.50
2018-05-11T08:09:45.789Z,15.53
2018-05-11T08:14:36.816Z,16.13
2018-05-11T08:19:28.602Z,16.47
2018-05-11T08:24:19.671Z,14.97
2018-05-11T08:29:10.730Z,14.80
2018-05-11T08:34:01.743Z,13.97
2018-05-11T08:38:53.533Z,14.33
2018-05-11T08:43:44.626Z,14.27
2018-05-11T08:48:35.778Z,15.00
2018-05-11T08:53:26.800Z,14.53
2018-05-11T08:58:17.837Z,14.50
2018-05-11T09:03:08.891Z,14.27
2018-05-11T09:08:00.660Z,13.87
2018-05-11T09:12:51.682Z,14.40
2018-05-11T09:17:42.698Z,13.40
2018-05-11T09:22:33.741Z,14.20
2018-05-11T09:27:24.779Z,14.77
2018-05-11T09:32:15.817Z,13.83
2018-05-11T09:37:06.904Z,15.03
2018-05-11T09:41:57.941Z,14.57
2018-05-11T09:46:49.002Z,14.33
2018-05-11T09:51:40.043Z,13.73
2018-05-11T09:56:31.826Z,14.43
2018-05-11T10:01:22.858Z,14.90
2018-05-11T10:06:13.868Z,14.73
2018-05-11T10:11:04.909Z,13.10
2018-05-11T10:15:55.932Z,13.80
2018-05-11T10:20:47.158Z,12.93
2018-05-11T10:25:38.094Z,12.67
2018-05-11T10:30:29.142Z,12.87
2018-05-11T10:35:20.893Z,13.20
2018-05-11T10:40:12.647Z,13.80
2018-05-11T10:45:03.664Z,12.10
2018-05-11T10:49:54.757Z,12.23
2018-05-11T10:54:45.797Z,13.67
2018-05-11T10:59:37.609Z,13.03
2018-05-11T11:04:28.687Z,13.07
2018-05-11T11:09:19.732Z,12.73
2018-05-11T11:14:10.743Z,12.33
2018-05-11T11:19:08.647Z,11.43
2018-05-11T11:23:59.763Z,12.20
2018-05-11T11:28:50.795Z,11.60
2018-05-11T11:33:41.867Z,11.53
2018-05-11T11:38:33.620Z,10.93
2018-05-11T11:43:24.756Z,11.40
2018-05-11T11:48:15.788Z,11.40
2018-05-11T11:53:06.866Z,11.60
2018-05-11T11:57:58.648Z,10.67
2018-05-11T12:02:49.748Z,11.27
2018-05-11T12:07:40.801Z,10.47
2018-05-11T12:12:31.827Z,10.90
2018-05-11T12:17:22.876Z,10.47
2018-05-11T12:22:13.913Z,9.47
2018-05-11T12:27:04.997Z,11.70
2018-05-11T12:31:56.022Z,9.60
2018-05-11T12:36:47.044Z,9.83
2018-05-11T12:41:38.069Z,9.90
2018-05-11T12:46:29.141Z,10.60
2018-05-11T12:51:20.923Z,9.13
2018-05-11T12:56:11.939Z,10.97
2018-05-11T13:01:02.952Z,10.97
2018-05-11T13:05:53.960Z,10.90
2018-05-11T13:10:44.998Z,10.20
2018-05-11T13:15:36.064Z,10.40
2018-05-11T13:20:27.140Z,9.70
2018-05-11T13:25:18.867Z,10.47
2018-05-11T13:30:10.670Z,9.80
2018-05-11T13:35:01.795Z,10.00
2018-05-11T13:39:52.880Z,10.53
2018-05-11T13:44:43.908Z,10.17
2018-05-11T13:49:34.940Z,10.47
2018-05-11T13:54:25.993Z,10.60
2018-05-11T13:59:17.049Z,10.17
2018-05-11T14:04:08.817Z,10.60
2018-05-11T14:08:59.887Z,11.20
2018-05-11T14:13:50.908Z,11.03
2018-05-11T14:18:41.949Z,10.20
2018-05-11T14:23:33.699Z,10.53
2018-05-11T14:28:25.467Z,10.70
2018-05-11T14:33:16.517Z,10.33
2018-05-11T14:38:07.541Z,10.80
2018-05-11T14:42:58.563Z,11.37
2018-05-11T14:47:49.650Z,11.83
2018-05-11T14:52:40.643Z,11.83
2018-05-11T14:57:32.525Z,10.50
2018-05-11T15:02:23.725Z,11.03
2018-05-11T15:07:15.502Z,10.70
2018-05-11T15:12:06.537Z,10.73
2018-05-11T15:16:57.545Z,10.67
2018-05-11T15:21:48.567Z,12.40
2018-05-11T15:26:39.657Z,10.77
2018-05-11T15:31:30.672Z,11.60
2018-05-11T15:36:22.431Z,10.37
2018-05-11T15:41:13.466Z,11.03
2018-05-11T15:46:04.564Z,11.73
2018-05-11T15:51:03.422Z,10.70
2018-05-11T15:55:54.475Z,9.83
2018-05-11T16:00:45.525Z,10.13
2018-05-11T16:05:36.606Z,9.70
2018-05-11T16:10:27.635Z,10.27
2018-05-11T16:15:18.641Z,9.50
2018-05-11T16:20:11.153Z,9.60
2018-05-11T16:25:02.155Z,9.37
2018-05-11T16:29:53.998Z,9.43
2018-05-11T16:34:45.047Z,10.73
2018-05-11T16:39:36.143Z,9.10
2018-05-11T16:44:27.155Z,9.83
2018-05-11T16:49:18.173Z,8.87
2018-05-11T16:54:09.252Z,8.97
2018-05-11T16:59:00.942Z,9.37
2018-05-11T17:03:52.723Z,11.10
2018-05-11T17:08:43.754Z,9.43
2018-05-11T17:13:34.814Z,9.17
2018-05-11T17:18:25.843Z,9.87
2018-05-11T17:23:16.883Z,9.23
2018-05-11T17:28:08.632Z,9.10
2018-05-11T17:33:00.437Z,9.40
2018-05-11T17:37:51.460Z,9.53
2018-05-11T17:42:42.488Z,10.07
2018-05-11T17:47:33.541Z,9.63
2018-05-11T17:52:25.301Z,11.30
2018-05-11T17:57:16.358Z,11.07
2018-05-11T18:02:07.393Z,10.53
2018-05-11T18:06:58.407Z,11.43
2018-05-11T18:11:49.416Z,11.60
2018-05-11T18:16:40.444Z,11.80
2018-05-11T18:21:31.471Z,11.13
2018-05-11T18:26:22.566Z,10.43
2018-05-11T18:31:13.584Z,10.63
2018-05-11T18:36:04.635Z,9.70
2018-05-11T18:40:55.652Z,10.07
2018-05-11T18:45:46.687Z,9.70
2018-05-11T18:50:37.768Z,10.23
2018-05-11T18:55:28.814Z,11.03
2018-05-11T19:00:19.904Z,11.17
2018-05-11T19:05:11.665Z,11.67
2018-05-11T19:10:02.813Z,11.67
2018-05-11T19:14:53.841Z,11.77
2018-05-11T19:19:44.893Z,12.63
2018-05-11T19:24:35.912Z,12.50
2018-05-11T19:29:27.725Z,13.87
2018-05-11T19:34:18.747Z,14.27
2018-05-11T19:39:09.832Z,15.47
2018-05-11T19:44:00.880Z,15.83
2018-05-11T19:48:53.098Z,17.37
2018-05-11T19:53:44.119Z,16.90
2018-05-11T19:58:35.878Z,16.20
2018-05-11T20:03:27.327Z,16.63
2018-05-11T20:08:18.372Z,16.90
2018-05-11T20:13:09.405Z,17.47
2018-05-11T20:18:00.433Z,17.33
2018-05-11T20:22:52.188Z,17.07
2018-05-11T20:27:43.199Z,18.33
2018-05-11T20:32:34.289Z,17.83
2018-05-11T20:37:25.995Z,19.20
2018-05-11T20:42:17.824Z,19.50
2018-05-11T20:47:08.918Z,19.77
2018-05-11T20:52:00.031Z,20.43
2018-05-11T20:56:51.067Z,21.33
2018-05-11T21:01:42.097Z,20.80
2018-05-11T21:06:33.135Z,22.50
2018-05-11T21:11:24.152Z,22.63
2018-05-11T21:16:15.183Z,22.77
2018-05-11T21:21:06.935Z,24.87
2018-05-11T21:25:58.704Z,25.80
2018-05-11T21:30:49.765Z,24.93
2018-05-11T21:35:40.777Z,26.47
2018-05-11T21:40:31.796Z,26.60
2018-05-11T21:45:22.888Z,25.80
2018-05-11T21:50:13.920Z,25.70
2018-05-11T21:55:04.984Z,25.77
2018-05-11T21:59:56.000Z,25.67
2018-05-11T22:04:47.066Z,25.00
2018-05-11T22:09:38.841Z,25.73
2018-05-11T22:14:29.916Z,24.47
2018-05-11T22:19:20.921Z,25.57
2018-05-11T22:24:11.888Z,26.67
2018-05-11T22:29:02.964Z,27.07
2018-05-11T22:33:54.817Z,26.40
2018-05-11T22:38:45.863Z,26.60
2018-05-11T22:43:37.674Z,26.23
2018-05-11T22:48:28.739Z,25.43
2018-05-11T22:53:19.866Z,25.00
2018-05-11T22:58:10.890Z,25.03
2018-05-11T23:03:01.906Z,26.47
2018-05-11T23:07:52.932Z,24.43
2018-05-11T23:12:43.977Z,25.57
2018-05-11T23:17:35.059Z,26.87
2018-05-11T23:22:26.805Z,25.37
2018-05-11T23:27:18.599Z,27.83
2018-05-11T23:32:09.639Z,28.53
2018-05-11T23:37:00.668Z,29.60
2018-05-11T23:41:51.672Z,29.13
2018-05-11T23:46:42.710Z,27.53
2018-05-11T23:51:33.751Z,26.00
2018-05-11T23:56:25.613Z,26.23
